createdAt,value
2019-05-22T00:00:50.229Z,100.00
2019-05-22T00:03:21.010Z,100.00
2019-05-22T00:05:49.503Z,100.00
2019-05-22T00:08:16.603Z,100.00
2019-05-22T00:10:45.746Z,100.00
2019-05-22T00:13:17.417Z,100.00
2019-05-22T00:15:45.880Z,100.00
2019-05-22T00:18:12.920Z,100.00
2019-05-22T00:20:41.476Z,100.00
2019-05-22T00:23:08.897Z,100.00
2019-05-22T00:25:37.145Z,100.00
2019-05-22T00:28:03.929Z,100.00
2019-05-22T00:30:32.895Z,100.00
2019-05-22T00:33:00.219Z,100.00
2019-05-22T00:35:28.568Z,100.00
2019-05-22T00:37:56.453Z,100.00
2019-05-22T00:40:25.076Z,100.00
2019-05-22T00:43:03.358Z,100.00
2019-05-22T00:45:22.223Z,100.00
2019-05-22T00:47:50.446Z,99.87
2019-05-22T00:50:21.869Z,99.15
2019-05-22T00:52:56.235Z,99.23
2019-05-22T00:55:33.884Z,98.78
2019-05-22T00:58:08.225Z,96.82
2019-05-22T01:00:44.889Z,98.21
2019-05-22T01:03:18.286Z,97.69
2019-05-22T01:05:48.216Z,98.37
2019-05-22T01:08:17.977Z,98.50
2019-05-22T01:10:47.082Z,98.88
2019-05-22T01:13:14.445Z,98.96
2019-05-22T01:15:41.284Z,98.27
2019-05-22T01:18:10.170Z,98.00
2019-05-22T01:20:37.612Z,97.46
2019-05-22T01:23:06.372Z,98.26
2019-05-22T01:25:33.698Z,98.05
2019-05-22T01:28:01.304Z,95.96
2019-05-22T01:30:37.932Z,95.47
2019-05-22T01:33:09.349Z,97.03
2019-05-22T01:35:36.218Z,97.59
2019-05-22T01:38:05.606Z,96.98
2019-05-22T01:40:42.038Z,96.94
2019-05-22T01:43:09.149Z,95.73
2019-05-22T01:45:37.937Z,96.94
2019-05-22T01:48:10.869Z,96.53
2019-05-22T01:50:51.046Z,95.81
2019-05-22T01:53:20.059Z,95.56
2019-05-22T01:55:47.943Z,94.67
2019-05-22T01:58:15.268Z,94.30
2019-05-22T02:00:43.592Z,95.12
2019-05-22T02:03:10.845Z,95.26
2019-05-22T02:05:38.062Z,95.38
2019-05-22T02:08:05.280Z,95.76
2019-05-22T02:10:34.166Z,95.09
2019-05-22T02:13:02.799Z,95.42
2019-05-22T02:15:30.430Z,93.57
2019-05-22T02:17:57.370Z,94.21
2019-05-22T02:20:24.391Z,93.36
2019-05-22T02:22:51.128Z,92.96
2019-05-22T02:25:18.320Z,93.88
2019-05-22T02:27:46.137Z,94.41
2019-05-22T02:30:13.755Z,94.32
2019-05-22T02:32:41.382Z,94.08
2019-05-22T02:35:09.727Z,93.61
2019-05-22T02:37:37.465Z,93.69
2019-05-22T02:40:06.165Z,93.23
2019-05-22T02:42:33.759Z,93.20
2019-05-22T02:45:01.011Z,92.81
2019-05-22T02:47:30.084Z,92.24
2019-05-22T02:49:57.565Z,92.81
2019-05-22T02:52:25.575Z,92.40
2019-05-22T02:54:52.359Z,93.01
2019-05-22T02:57:23.669Z,92.86
2019-05-22T02:59:50.450Z,91.38
2019-05-22T03:02:17.400Z,92.35
2019-05-22T03:04:53.179Z,92.04
2019-05-22T03:07:20.931Z,92.31
2019-05-22T03:09:50.027Z,91.61
2019-05-22T03:12:18.648Z,91.88
2019-05-22T03:14:45.570Z,91.65
2019-05-22T03:17:32.901Z,91.21
2019-05-22T03:20:03.742Z,91.39
2019-05-22T03:22:39.191Z,91.18
2019-05-22T03:25:10.695Z,91.19
2019-05-22T03:27:45.158Z,91.33
2019-05-22T03:30:20.727Z,92.05
2019-05-22T03:32:47.436Z,92.52
2019-05-22T03:35:14.881Z,93.08
2019-05-22T03:37:42.316Z,93.00
2019-05-22T03:40:09.573Z,92.38
2019-05-22T03:42:36.362Z,92.54
2019-05-22T03:45:05.017Z,93.08
2019-05-22T03:47:32.689Z,93.61
2019-05-22T03:50:04.241Z,93.17
2019-05-22T03:52:31.361Z,92.12
2019-05-22T03:55:00.001Z,92.52
2019-05-22T03:57:27.134Z,91.58
2019-05-22T03:59:54.508Z,91.27
2019-05-22T04:02:22.024Z,90.48
2019-05-22T04:04:49.187Z,90.66
2019-05-22T04:07:20.893Z,90.20
2019-05-22T04:09:50.841Z,90.59
2019-05-22T04:12:18.145Z,90.88
2019-05-22T04:14:45.936Z,89.96
2019-05-22T04:17:17.296Z,90.37
2019-05-22T04:19:50.996Z,90.23
2019-05-22T04:22:16.998Z,90.13
2019-05-22T04:24:43.731Z,88.89
2019-05-22T04:27:11.173Z,88.73
2019-05-22T04:29:38.003Z,88.91
2019-05-22T04:32:17.940Z,89.42
2019-05-22T04:34:50.279Z,88.89
2019-05-22T04:37:18.913Z,89.27
2019-05-22T04:39:47.910Z,88.44
2019-05-22T04:42:15.252Z,88.57
2019-05-22T04:45:03.611Z,88.60
2019-05-22T04:47:30.936Z,89.19
2019-05-22T04:50:07.315Z,89.31
2019-05-22T04:52:26.683Z,88.98
2019-05-22T04:54:53.424Z,89.34
2019-05-22T04:57:20.473Z,88.18
2019-05-22T04:59:47.289Z,88.62
2019-05-22T05:02:14.728Z,89.37
2019-05-22T05:04:41.468Z,87.82
2019-05-22T05:07:08.172Z,87.46
2019-05-22T05:09:35.310Z,87.74
2019-05-22T05:12:02.442Z,88.51
2019-05-22T05:14:31.014Z,88.87
2019-05-22T05:16:57.727Z,88.45
2019-05-22T05:19:24.527Z,87.67
2019-05-22T05:21:51.249Z,88.03
2019-05-22T05:24:20.272Z,88.20
2019-05-22T05:26:47.118Z,88.32
2019-05-22T05:29:27.793Z,87.28
2019-05-22T05:31:56.278Z,87.21
2019-05-22T05:34:47.046Z,87.41
2019-05-22T05:37:17.674Z,87.67
2019-05-22T05:40:28.371Z,88.29
2019-05-22T05:42:55.263Z,88.42
2019-05-22T05:45:22.545Z,87.91
2019-05-22T05:47:49.809Z,86.96
2019-05-22T05:50:17.476Z,86.35
2019-05-22T05:52:44.454Z,86.88
2019-05-22T05:55:12.363Z,86.74
2019-05-22T05:58:27.941Z,85.56
2019-05-22T06:00:57.239Z,85.81
2019-05-22T06:03:35.165Z,85.73
2019-05-22T06:06:07.781Z,86.09
2019-05-22T06:08:36.402Z,85.43
2019-05-22T06:11:40.569Z,86.44
2019-05-22T06:14:09.260Z,85.47
2019-05-22T06:17:16.205Z,84.22
2019-05-22T06:19:45.599Z,85.32
2019-05-22T06:22:13.499Z,85.15
2019-05-22T06:24:59.324Z,84.75
2019-05-22T06:27:49.046Z,85.60
2019-05-22T06:30:18.720Z,84.37
2019-05-22T06:33:29.573Z,84.54
2019-05-22T06:35:58.241Z,84.95
2019-05-22T06:39:02.328Z,84.18
2019-05-22T06:41:32.351Z,84.19
2019-05-22T06:44:26.473Z,84.13
2019-05-22T06:46:53.315Z,84.20
2019-05-22T06:49:37.988Z,84.39
2019-05-22T06:52:05.143Z,84.08
2019-05-22T06:54:32.484Z,84.24
2019-05-22T06:57:02.281Z,84.78
2019-05-22T06:59:29.045Z,84.45
2019-05-22T07:02:01.424Z,84.12
2019-05-22T07:04:28.570Z,84.14
2019-05-22T07:06:55.533Z,83.48
2019-05-22T07:09:23.673Z,83.36
2019-05-22T07:11:50.848Z,83.47
2019-05-22T07:14:17.718Z,82.30
2019-05-22T07:16:44.566Z,82.84
2019-05-22T07:19:12.116Z,82.66
2019-05-22T07:21:38.900Z,82.55
2019-05-22T07:24:06.174Z,81.04
2019-05-22T07:26:33.699Z,81.51
2019-05-22T07:29:04.470Z,81.03
2019-05-22T07:31:29.895Z,79.94
2019-05-22T07:33:56.637Z,80.61
2019-05-22T07:36:23.463Z,79.26
2019-05-22T07:38:52.908Z,79.93
2019-05-22T07:41:19.647Z,79.74
2019-05-22T07:43:48.668Z,79.49
2019-05-22T07:46:15.368Z,78.03
2019-05-22T07:48:42.426Z,78.44
2019-05-22T07:51:09.479Z,78.45
2019-05-22T07:53:36.195Z,77.87
2019-05-22T07:56:06.840Z,78.48
2019-05-22T07:58:34.755Z,77.69
2019-05-22T08:01:02.826Z,77.81
2019-05-22T08:03:31.371Z,77.12
2019-05-22T08:05:58.562Z,77.27
2019-05-22T08:08:25.985Z,77.11
2019-05-22T08:10:53.710Z,77.28
2019-05-22T08:13:20.761Z,77.45
2019-05-22T08:15:48.238Z,78.52
2019-05-22T08:18:15.952Z,77.68
2019-05-22T08:20:42.788Z,78.50
2019-05-22T08:23:11.275Z,78.28
2019-05-22T08:25:38.346Z,78.77
2019-05-22T08:28:05.465Z,79.07
2019-05-22T08:30:32.209Z,79.11
2019-05-22T08:33:00.755Z,79.01
2019-05-22T08:35:30.851Z,77.62
2019-05-22T08:37:58.588Z,78.17
2019-05-22T08:40:25.615Z,78.17
2019-05-22T08:42:52.349Z,78.45
2019-05-22T08:45:20.930Z,77.77
2019-05-22T08:47:48.191Z,78.54
2019-05-22T08:50:17.049Z,78.03
2019-05-22T08:52:44.346Z,77.25
2019-05-22T08:55:11.165Z,77.34
2019-05-22T08:57:39.851Z,78.14
2019-05-22T09:00:08.505Z,76.84
2019-05-22T09:02:35.267Z,77.54
2019-05-22T09:05:02.164Z,77.37
2019-05-22T09:07:29.291Z,77.13
2019-05-22T09:09:56.025Z,76.78
2019-05-22T09:12:22.761Z,76.98
2019-05-22T09:14:50.038Z,75.32
2019-05-22T09:17:17.601Z,74.63
2019-05-22T09:19:47.748Z,74.96
2019-05-22T09:22:14.894Z,74.23
2019-05-22T09:24:42.619Z,74.59
2019-05-22T09:27:10.977Z,73.87
2019-05-22T09:29:37.707Z,74.17
2019-05-22T09:32:06.417Z,72.92
2019-05-22T09:34:36.294Z,72.29
2019-05-22T09:37:06.816Z,73.14
2019-05-22T09:39:33.854Z,73.46
2019-05-22T09:42:00.678Z,72.22
2019-05-22T09:44:27.763Z,70.40
2019-05-22T09:46:54.480Z,69.73
2019-05-22T09:49:23.901Z,69.99
2019-05-22T09:51:50.256Z,70.17
2019-05-22T09:54:17.210Z,68.69
2019-05-22T09:56:44.067Z,69.13
2019-05-22T09:59:11.073Z,69.59
2019-05-22T10:01:37.785Z,68.99
2019-05-22T10:04:04.871Z,69.04
2019-05-22T10:06:31.554Z,69.51
2019-05-22T10:08:58.965Z,68.50
2019-05-22T10:11:26.505Z,68.77
2019-05-22T10:13:55.123Z,67.74
2019-05-22T10:16:21.868Z,67.30
2019-05-22T10:18:52.812Z,66.65
2019-05-22T10:21:17.993Z,65.36
2019-05-22T10:23:44.824Z,66.08
2019-05-22T10:26:11.624Z,65.96
2019-05-22T10:28:39.310Z,65.41
2019-05-22T10:31:08.438Z,65.27
2019-05-22T10:33:37.130Z,64.40
2019-05-22T10:36:04.236Z,63.22
2019-05-22T10:38:31.162Z,64.49
2019-05-22T10:40:59.539Z,64.67
2019-05-22T10:43:26.853Z,65.09
2019-05-22T10:45:53.673Z,63.97
2019-05-22T10:48:20.609Z,65.09
2019-05-22T10:50:47.357Z,63.44
2019-05-22T10:53:30.562Z,64.11
2019-05-22T10:55:43.389Z,64.08
2019-05-22T10:58:10.273Z,63.21
2019-05-22T11:00:37.573Z,63.61
2019-05-22T11:03:04.870Z,63.28
2019-05-22T11:05:31.602Z,62.82
2019-05-22T11:07:59.154Z,61.13
2019-05-22T11:10:26.261Z,60.83
2019-05-22T11:12:53.230Z,59.80
2019-05-22T11:15:20.501Z,60.56
2019-05-22T11:17:48.669Z,59.07
2019-05-22T11:20:15.842Z,58.03
2019-05-22T11:22:43.079Z,57.48
2019-05-22T11:25:12.437Z,58.19
2019-05-22T11:27:39.429Z,56.57
2019-05-22T11:30:06.590Z,56.14
2019-05-22T11:32:33.687Z,53.97
2019-05-22T11:35:00.937Z,53.29
2019-05-22T11:37:28.088Z,54.20
2019-05-22T11:39:55.239Z,54.29
2019-05-22T11:42:22.054Z,53.08
2019-05-22T11:44:49.067Z,50.91
2019-05-22T11:47:16.212Z,52.24
2019-05-22T11:49:42.935Z,52.90
2019-05-22T11:52:11.425Z,55.07
2019-05-22T11:54:38.134Z,55.21
2019-05-22T11:57:04.849Z,55.70
2019-05-22T11:59:32.062Z,54.81
2019-05-22T12:01:59.294Z,54.44
2019-05-22T12:04:26.123Z,53.95
2019-05-22T12:06:54.134Z,52.63
2019-05-22T12:09:23.211Z,47.69
2019-05-22T12:11:49.937Z,48.33
2019-05-22T12:14:17.210Z,49.58
2019-05-22T12:16:44.443Z,48.82
2019-05-22T12:19:11.359Z,50.46
2019-05-22T12:21:38.797Z,48.53
2019-05-22T12:24:07.672Z,48.18
2019-05-22T12:26:35.820Z,49.15
2019-05-22T12:29:02.566Z,50.17
2019-05-22T12:31:29.268Z,49.79
2019-05-22T12:33:56.463Z,48.95
2019-05-22T12:36:23.195Z,48.96
2019-05-22T12:38:49.910Z,47.14
2019-05-22T12:41:17.056Z,48.76
2019-05-22T12:43:45.003Z,48.46
2019-05-22T12:46:12.682Z,47.80
2019-05-22T12:48:40.960Z,48.78
2019-05-22T12:51:09.859Z,47.21
2019-05-22T12:53:36.813Z,47.06
2019-05-22T12:56:03.811Z,46.14
2019-05-22T12:58:31.436Z,45.21
2019-05-22T13:00:58.247Z,44.50
2019-05-22T13:03:27.730Z,42.30
2019-05-22T13:05:54.456Z,40.41
2019-05-22T13:08:21.624Z,40.60
2019-05-22T13:10:48.666Z,40.49
2019-05-22T13:13:15.511Z,40.48
2019-05-22T13:15:42.699Z,41.36
2019-05-22T13:18:09.999Z,42.12
2019-05-22T13:20:43.370Z,41.36
2019-05-22T13:23:08.875Z,38.63
2019-05-22T13:25:36.075Z,38.73
2019-05-22T13:28:03.345Z,35.99
2019-05-22T13:30:31.917Z,36.07
2019-05-22T13:32:58.647Z,36.37
2019-05-22T13:35:25.908Z,37.12
2019-05-22T13:37:53.108Z,36.19
2019-05-22T13:40:27.698Z,36.74
2019-05-22T13:42:49.128Z,37.29
2019-05-22T13:45:28.420Z,34.82
2019-05-22T13:47:44.960Z,34.51
2019-05-22T13:50:12.270Z,34.83
2019-05-22T13:52:39.069Z,35.11
2019-05-22T13:55:06.464Z,35.29
2019-05-22T13:57:33.318Z,36.05
2019-05-22T14:00:00.066Z,35.44
2019-05-22T14:02:27.420Z,35.28
2019-05-22T14:04:54.368Z,33.98
2019-05-22T14:07:21.110Z,33.64
2019-05-22T14:09:47.844Z,35.29
2019-05-22T14:12:16.470Z,35.24
2019-05-22T14:14:43.223Z,35.91
2019-05-22T14:17:09.932Z,36.40
2019-05-22T14:19:36.652Z,36.39
2019-05-22T14:22:03.540Z,35.21
2019-05-22T14:24:30.269Z,33.40
2019-05-22T14:26:57.004Z,33.08
2019-05-22T14:29:23.753Z,32.94
2019-05-22T14:31:52.238Z,32.75
2019-05-22T14:34:19.379Z,32.71
2019-05-22T14:36:46.909Z,33.50
2019-05-22T14:39:14.470Z,32.94
2019-05-22T14:41:41.235Z,33.15
2019-05-22T14:44:07.975Z,32.25
2019-05-22T14:46:34.813Z,32.85
2019-05-22T14:49:04.135Z,32.06
2019-05-22T14:51:31.693Z,31.29
2019-05-22T14:53:58.753Z,30.65
2019-05-22T14:56:25.544Z,31.28
2019-05-22T14:58:53.182Z,32.02
2019-05-22T15:01:20.704Z,32.93
2019-05-22T15:03:47.441Z,34.49
2019-05-22T15:06:14.718Z,35.05
2019-05-22T15:08:41.554Z,32.24
2019-05-22T15:11:09.038Z,32.51
2019-05-22T15:13:35.857Z,30.88
2019-05-22T15:16:02.588Z,30.46
2019-05-22T15:18:32.508Z,29.65
2019-05-22T15:21:00.906Z,30.23
2019-05-22T15:23:28.154Z,31.15
2019-05-22T15:25:55.073Z,30.93
2019-05-22T15:28:21.991Z,30.83
2019-05-22T15:30:49.035Z,30.50
2019-05-22T15:33:15.755Z,30.10
2019-05-22T15:35:42.800Z,29.17
2019-05-22T15:38:10.070Z,29.58
2019-05-22T15:40:37.139Z,30.01
2019-05-22T15:43:05.796Z,29.93
2019-05-22T15:45:34.101Z,30.33
2019-05-22T15:48:03.720Z,30.28
2019-05-22T15:50:31.417Z,30.80
2019-05-22T15:53:04.261Z,31.11
2019-05-22T15:55:32.983Z,31.38
2019-05-22T15:58:00.062Z,31.05
2019-05-22T16:00:28.663Z,30.95
2019-05-22T16:02:55.707Z,30.79
2019-05-22T16:05:22.649Z,29.43
2019-05-22T16:07:49.674Z,29.51
2019-05-22T16:10:16.553Z,28.97
2019-05-22T16:12:47.739Z,29.00
2019-05-22T16:15:16.704Z,27.98
2019-05-22T16:17:43.929Z,28.22
2019-05-22T16:20:11.836Z,28.96
2019-05-22T16:22:39.074Z,28.85
2019-05-22T16:25:07.747Z,28.40
2019-05-22T16:27:34.574Z,28.34
2019-05-22T16:30:01.568Z,28.90
2019-05-22T16:32:28.382Z,29.30
2019-05-22T16:34:55.121Z,29.25
2019-05-22T16:37:22.012Z,29.42
2019-05-22T16:39:50.973Z,30.21
2019-05-22T16:42:17.842Z,30.08
2019-05-22T16:44:44.987Z,30.02
2019-05-22T16:47:11.806Z,29.46
2019-05-22T16:49:38.784Z,29.93
2019-05-22T16:52:06.305Z,29.79
2019-05-22T16:54:33.120Z,29.99
2019-05-22T16:57:00.688Z,29.49
2019-05-22T16:59:28.712Z,29.97
2019-05-22T17:01:59.364Z,30.07
2019-05-22T17:04:24.809Z,30.49
2019-05-22T17:06:51.637Z,30.90
2019-05-22T17:09:20.545Z,30.71
2019-05-22T17:11:47.840Z,30.98
2019-05-22T17:14:14.858Z,31.60
2019-05-22T17:16:42.498Z,31.68
2019-05-22T17:19:25.751Z,32.34
2019-05-22T17:21:38.709Z,32.64
2019-05-22T17:24:09.249Z,33.06
2019-05-22T17:26:36.160Z,33.26
2019-05-22T17:29:02.906Z,33.98
2019-05-22T17:31:30.043Z,34.83
2019-05-22T17:33:57.513Z,34.32
2019-05-22T17:36:24.661Z,35.21
2019-05-22T17:38:52.326Z,34.79
2019-05-22T17:41:20.258Z,34.49
2019-05-22T17:43:47.789Z,34.13
2019-05-22T17:46:16.924Z,35.05
2019-05-22T17:48:44.130Z,35.66
2019-05-22T17:51:11.230Z,36.02
2019-05-22T17:53:37.951Z,35.77
2019-05-22T17:56:04.667Z,34.93
2019-05-22T17:58:31.401Z,35.57
2019-05-22T18:00:59.811Z,35.63
2019-05-22T18:03:26.760Z,36.18
2019-05-22T18:05:54.461Z,35.39
2019-05-22T18:08:21.579Z,36.25
2019-05-22T18:10:49.147Z,36.38
2019-05-22T18:13:16.480Z,36.90
2019-05-22T18:15:43.660Z,37.50
2019-05-22T18:18:10.527Z,37.92
2019-05-22T18:20:43.338Z,38.44
2019-05-22T18:23:06.001Z,38.83
2019-05-22T18:25:32.980Z,39.31
2019-05-22T18:28:00.959Z,39.59
2019-05-22T18:30:28.187Z,39.72
2019-05-22T18:32:55.439Z,39.89
2019-05-22T18:35:22.381Z,40.18
2019-05-22T18:37:49.157Z,40.75
2019-05-22T18:40:16.942Z,40.75
2019-05-22T18:42:44.119Z,41.19
2019-05-22T18:45:13.529Z,41.01
2019-05-22T18:47:40.277Z,41.55
2019-05-22T18:50:07.983Z,41.69
2019-05-22T18:52:41.057Z,41.81
2019-05-22T18:55:03.987Z,42.19
2019-05-22T18:57:31.122Z,42.47
2019-05-22T19:00:02.773Z,42.44
2019-05-22T19:02:26.672Z,42.49
2019-05-22T19:04:53.389Z,42.88
2019-05-22T19:07:20.099Z,43.41
2019-05-22T19:09:46.831Z,43.70
2019-05-22T19:12:15.081Z,43.79
2019-05-22T19:14:41.827Z,44.19
2019-05-22T19:17:09.412Z,44.59
2019-05-22T19:19:36.955Z,45.05
2019-05-22T19:22:03.693Z,45.73
2019-05-22T19:24:30.425Z,46.34
2019-05-22T19:26:57.164Z,46.91
2019-05-22T19:29:23.891Z,47.37
2019-05-22T19:31:50.604Z,47.64
2019-05-22T19:34:17.530Z,47.86
2019-05-22T19:36:44.220Z,48.21
2019-05-22T19:39:10.962Z,47.99
2019-05-22T19:41:38.064Z,48.66
2019-05-22T19:44:05.835Z,49.26
2019-05-22T19:46:33.705Z,49.60
2019-05-22T19:49:00.941Z,50.17
2019-05-22T19:51:27.653Z,51.02
2019-05-22T19:53:55.163Z,51.18
2019-05-22T19:56:24.445Z,51.88
2019-05-22T19:58:51.338Z,52.77
2019-05-22T20:01:18.138Z,53.42
2019-05-22T20:03:45.228Z,53.65
2019-05-22T20:06:11.974Z,54.09
2019-05-22T20:08:39.920Z,55.12
2019-05-22T20:11:06.738Z,55.49
2019-05-22T20:13:33.725Z,55.54
2019-05-22T20:16:00.473Z,56.09
2019-05-22T20:18:27.321Z,57.25
2019-05-22T20:20:54.655Z,57.89
2019-05-22T20:23:34.717Z,58.19
2019-05-22T20:25:50.551Z,58.51
2019-05-22T20:28:17.689Z,59.21
2019-05-22T20:30:47.435Z,59.51
2019-05-22T20:33:14.738Z,59.65
2019-05-22T20:35:41.563Z,59.51
2019-05-22T20:38:08.381Z,59.58
2019-05-22T20:40:35.514Z,59.83
2019-05-22T20:43:03.274Z,60.08
2019-05-22T20:45:31.647Z,60.17
2019-05-22T20:48:21.862Z,60.24
2019-05-22T20:50:49.083Z,61.00
2019-05-22T20:53:16.710Z,61.37
2019-05-22T20:55:44.722Z,61.66
2019-05-22T20:58:13.374Z,62.01
2019-05-22T21:00:40.154Z,62.13
2019-05-22T21:03:07.520Z,62.09
2019-05-22T21:05:35.312Z,62.53
2019-05-22T21:08:05.167Z,62.86
2019-05-22T21:10:31.957Z,63.23
2019-05-22T21:13:00.112Z,63.04
2019-05-22T21:15:28.987Z,62.25
2019-05-22T21:17:57.715Z,62.09
2019-05-22T21:20:25.375Z,63.01
2019-05-22T21:22:55.129Z,64.01
2019-05-22T21:25:22.369Z,64.36
2019-05-22T21:27:51.116Z,64.51
2019-05-22T21:30:19.407Z,64.42
2019-05-22T21:32:46.983Z,64.26
2019-05-22T21:35:15.919Z,65.04
2019-05-22T21:37:43.174Z,65.34
2019-05-22T21:40:10.368Z,65.19
2019-05-22T21:42:38.025Z,65.61
2019-05-22T21:45:06.409Z,65.85
2019-05-22T21:47:33.272Z,65.62
2019-05-22T21:50:00.930Z,65.71
2019-05-22T21:52:28.086Z,65.77
2019-05-22T21:54:54.792Z,65.57
2019-05-22T21:57:21.931Z,65.86
2019-05-22T21:59:49.209Z,65.69
2019-05-22T22:02:22.288Z,65.69
2019-05-22T22:04:49.687Z,66.46
2019-05-22T22:07:16.783Z,66.83
2019-05-22T22:09:47.596Z,67.02
2019-05-22T22:12:14.328Z,67.54
2019-05-22T22:14:42.566Z,68.28
2019-05-22T22:17:11.561Z,69.14
2019-05-22T22:19:38.308Z,68.41
2019-05-22T22:22:06.971Z,68.39
2019-05-22T22:24:37.702Z,68.14
2019-05-22T22:27:04.736Z,68.20
2019-05-22T22:29:31.541Z,69.06
2019-05-22T22:31:59.742Z,69.26
2019-05-22T22:34:40.320Z,69.42
2019-05-22T22:37:08.524Z,70.05
2019-05-22T22:39:36.060Z,69.81
2019-05-22T22:42:03.672Z,69.57
2019-05-22T22:44:31.968Z,69.43
2019-05-22T22:47:03.733Z,69.84
2019-05-22T22:49:31.780Z,69.88
2019-05-22T22:51:58.781Z,69.78
2019-05-22T22:54:25.902Z,69.02
2019-05-22T22:56:52.686Z,69.45
2019-05-22T22:59:20.427Z,68.89
2019-05-22T23:01:48.090Z,69.45
2019-05-22T23:04:17.376Z,69.65
2019-05-22T23:06:44.209Z,69.55
2019-05-22T23:09:12.020Z,69.52
2019-05-22T23:11:40.014Z,70.11
2019-05-22T23:14:07.226Z,70.27
2019-05-22T23:16:33.948Z,70.80
2019-05-22T23:19:33.573Z,70.50
2019-05-22T23:22:00.826Z,70.26
2019-05-22T23:24:29.041Z,71.07
2019-05-22T23:26:59.012Z,70.14
2019-05-22T23:29:26.367Z,70.27
2019-05-22T23:31:55.610Z,69.90
2019-05-22T23:34:23.067Z,69.34
2019-05-22T23:36:50.245Z,69.43
2019-05-22T23:39:18.601Z,69.90
2019-05-22T23:41:45.904Z,70.61
2019-05-22T23:44:13.250Z,70.72
2019-05-22T23:46:40.664Z,70.69
2019-05-22T23:49:09.336Z,70.93
2019-05-22T23:51:36.078Z,70.92
2019-05-22T23:54:02.984Z,71.22
2019-05-22T23:56:30.038Z,71.80
2019-05-22T23:58:57.854Z,71.58
